createdAt,value
2018-09-30T00:01:23.881Z,9.80
2018-09-30T00:03:51.970Z,9.80
2018-09-30T00:06:20.054Z,9.80
2018-09-30T00:08:48.127Z,9.80
2018-09-30T00:11:16.419Z,9.70
2018-09-30T00:13:44.617Z,9.60
2018-09-30T00:16:12.695Z,9.60
2018-09-30T00:18:40.778Z,9.50
2018-09-30T00:21:09.118Z,9.40
2018-09-30T00:23:42.638Z,9.40
2018-09-30T00:26:16.215Z,9.30
2018-09-30T00:28:44.411Z,9.20
2018-09-30T00:31:12.486Z,9.30
2018-09-30T00:33:45.997Z,9.30
2018-09-30T00:36:14.219Z,9.20
2018-09-30T00:38:42.298Z,9.30
2018-09-30T00:41:10.506Z,9.20
2018-09-30T00:43:38.869Z,9.20
2018-09-30T00:46:07.097Z,9.10
2018-09-30T00:48:35.357Z,9.20
2018-09-30T00:51:03.594Z,9.20
2018-09-30T00:53:31.670Z,9.10
2018-09-30T00:55:59.825Z,9.00
2018-09-30T00:58:27.906Z,9.00
2018-09-30T01:00:55.976Z,8.90
2018-09-30T01:03:24.059Z,8.80
2018-09-30T01:05:52.135Z,8.80
2018-09-30T01:08:20.246Z,8.80
2018-09-30T01:10:48.313Z,8.80
2018-09-30T01:13:16.394Z,8.70
2018-09-30T01:15:44.697Z,8.60
2018-09-30T01:18:12.786Z,8.60
2018-09-30T01:20:40.897Z,8.50
2018-09-30T01:23:09.011Z,8.50
2018-09-30T01:25:37.094Z,8.50
2018-09-30T01:28:05.334Z,8.50
2018-09-30T01:30:33.414Z,8.40
2018-09-30T01:33:01.650Z,8.40
2018-09-30T01:35:29.730Z,8.40
2018-09-30T01:37:58.098Z,8.30
2018-09-30T01:40:26.174Z,8.30
2018-09-30T01:42:54.263Z,8.10
2018-09-30T01:45:22.338Z,8.00
2018-09-30T01:47:50.428Z,8.10
2018-09-30T01:50:18.506Z,8.00
2018-09-30T01:52:48.033Z,7.90
2018-09-30T01:55:16.103Z,7.90
2018-09-30T01:57:44.191Z,7.80
2018-09-30T02:00:12.271Z,7.80
2018-09-30T02:02:40.354Z,7.80
2018-09-30T02:05:08.590Z,7.80
2018-09-30T02:07:36.675Z,7.80
2018-09-30T02:10:04.777Z,7.80
2018-09-30T02:12:33.109Z,7.80
2018-09-30T02:15:01.220Z,7.80
2018-09-30T02:17:29.262Z,7.80
2018-09-30T02:19:57.379Z,7.70
2018-09-30T02:22:25.594Z,7.70
2018-09-30T02:24:53.678Z,7.60
2018-09-30T02:27:21.758Z,7.50
2018-09-30T02:29:49.850Z,7.50
2018-09-30T02:32:17.929Z,7.50
2018-09-30T02:34:46.019Z,7.50
2018-09-30T02:37:14.141Z,7.60
2018-09-30T02:39:42.231Z,7.50
2018-09-30T02:42:10.870Z,7.40
2018-09-30T02:44:38.954Z,7.40
2018-09-30T02:47:07.067Z,7.40
2018-09-30T02:49:35.150Z,7.40
2018-09-30T02:52:03.238Z,7.40
2018-09-30T02:54:31.373Z,7.30
2018-09-30T02:56:59.459Z,7.20
2018-09-30T02:59:27.533Z,7.20
2018-09-30T03:01:55.623Z,7.10
2018-09-30T03:04:23.695Z,7.10
2018-09-30T03:06:57.223Z,7.10
2018-09-30T03:09:25.306Z,7.00
2018-09-30T03:11:53.390Z,7.00
2018-09-30T03:14:21.466Z,6.90
2018-09-30T03:16:49.554Z,6.90
2018-09-30T03:19:17.647Z,6.80
2018-09-30T03:21:45.721Z,6.80
2018-09-30T03:24:13.816Z,6.80
2018-09-30T03:26:42.364Z,6.80
2018-09-30T03:29:10.740Z,6.80
2018-09-30T03:31:38.871Z,6.80
2018-09-30T03:34:07.278Z,6.90
2018-09-30T03:36:35.362Z,6.90
2018-09-30T03:39:04.082Z,6.90
2018-09-30T03:41:32.161Z,6.80
2018-09-30T03:44:00.262Z,6.90
2018-09-30T03:46:28.338Z,6.90
2018-09-30T03:48:56.435Z,6.90
2018-09-30T03:51:24.527Z,6.80
2018-09-30T03:53:52.626Z,6.70
2018-09-30T03:56:20.701Z,6.70
2018-09-30T03:58:48.774Z,6.60
2018-09-30T04:01:16.866Z,6.50
2018-09-30T04:03:44.946Z,6.50
2018-09-30T04:06:13.254Z,6.40
2018-09-30T04:08:41.342Z,6.40
2018-09-30T04:11:09.435Z,6.30
2018-09-30T04:13:37.689Z,6.40
2018-09-30T04:16:05.800Z,6.40
2018-09-30T04:18:33.883Z,6.40
2018-09-30T04:21:01.971Z,6.30
2018-09-30T04:23:30.046Z,6.20
2018-09-30T04:25:58.251Z,6.20
2018-09-30T04:28:26.316Z,6.20
2018-09-30T04:30:54.426Z,6.20
2018-09-30T04:33:22.574Z,6.20
2018-09-30T04:35:50.623Z,6.20
2018-09-30T04:38:18.703Z,6.10
2018-09-30T04:40:46.801Z,6.10
2018-09-30T04:43:14.879Z,6.10
2018-09-30T04:45:42.954Z,6.20
2018-09-30T04:48:11.067Z,6.20
2018-09-30T04:50:39.146Z,6.20
2018-09-30T04:53:07.242Z,6.10
2018-09-30T04:55:35.330Z,6.10
2018-09-30T04:58:03.402Z,6.00
2018-09-30T05:00:31.506Z,6.00
2018-09-30T05:02:59.577Z,6.00
2018-09-30T05:05:27.792Z,5.90
2018-09-30T05:07:55.862Z,5.90
2018-09-30T05:10:23.970Z,5.80
2018-09-30T05:12:52.053Z,5.60
2018-09-30T05:15:20.261Z,5.60
2018-09-30T05:17:48.334Z,5.60
2018-09-30T05:20:16.419Z,5.60
2018-09-30T05:22:44.506Z,5.50
2018-09-30T05:25:12.594Z,5.50
2018-09-30T05:27:40.670Z,5.50
2018-09-30T05:30:08.751Z,5.50
2018-09-30T05:32:36.836Z,5.60
2018-09-30T05:35:04.929Z,5.60
2018-09-30T05:37:33.022Z,5.60
2018-09-30T05:40:01.103Z,5.50
2018-09-30T05:42:29.187Z,5.60
2018-09-30T05:44:57.258Z,5.60
2018-09-30T05:47:25.346Z,5.50
2018-09-30T05:49:53.420Z,5.50
2018-09-30T05:52:21.527Z,5.60
2018-09-30T05:54:49.604Z,5.60
2018-09-30T05:57:17.701Z,5.60
2018-09-30T05:59:45.774Z,5.70
2018-09-30T06:02:13.871Z,5.80
2018-09-30T06:04:41.969Z,5.80
2018-09-30T06:07:10.074Z,5.70
2018-09-30T06:09:38.154Z,5.80
2018-09-30T06:12:06.234Z,5.80
2018-09-30T06:14:34.331Z,5.80
2018-09-30T06:17:02.422Z,5.80
2018-09-30T06:19:30.896Z,5.90
2018-09-30T06:21:58.990Z,5.90
2018-09-30T06:24:27.875Z,5.90
2018-09-30T06:26:55.956Z,6.00
2018-09-30T06:29:24.034Z,6.00
2018-09-30T06:31:52.165Z,6.10
2018-09-30T06:34:20.233Z,6.20
2018-09-30T06:36:48.336Z,6.20
2018-09-30T06:39:16.431Z,6.30
2018-09-30T06:41:44.773Z,6.40
2018-09-30T06:44:12.874Z,6.40
2018-09-30T06:46:40.990Z,6.50
2018-09-30T06:49:09.058Z,6.50
2018-09-30T06:51:37.355Z,6.60
2018-09-30T06:54:05.495Z,6.60
2018-09-30T06:56:33.599Z,6.60
2018-09-30T06:59:01.912Z,6.70
2018-09-30T07:01:29.998Z,6.80
2018-09-30T07:03:58.154Z,6.80
2018-09-30T07:06:26.245Z,6.90
2018-09-30T07:08:54.336Z,7.00
2018-09-30T07:11:22.433Z,7.00
2018-09-30T07:13:50.598Z,7.10
2018-09-30T07:16:18.674Z,7.20
2018-09-30T07:18:46.770Z,7.30
2018-09-30T07:21:14.846Z,7.40
2018-09-30T07:23:43.041Z,7.50
2018-09-30T07:26:11.122Z,7.60
2018-09-30T07:28:39.202Z,7.60
2018-09-30T07:31:07.698Z,7.70
2018-09-30T07:33:35.805Z,7.80
2018-09-30T07:36:03.870Z,7.90
2018-09-30T07:38:31.966Z,8.00
2018-09-30T07:41:00.438Z,8.10
2018-09-30T07:43:28.530Z,8.20
2018-09-30T07:45:56.614Z,8.30
2018-09-30T07:48:24.701Z,8.40
2018-09-30T07:50:52.789Z,8.50
2018-09-30T07:53:20.879Z,8.60
2018-09-30T07:55:48.963Z,8.80
2018-09-30T07:58:17.060Z,8.90
2018-09-30T08:00:45.162Z,9.00
2018-09-30T08:03:13.343Z,9.00
2018-09-30T08:05:41.435Z,9.20
2018-09-30T08:08:09.701Z,9.20
2018-09-30T08:10:37.794Z,9.40
2018-09-30T08:13:06.011Z,9.40
2018-09-30T08:15:35.037Z,9.40
2018-09-30T08:18:03.896Z,9.50
2018-09-30T08:20:32.957Z,9.60
2018-09-30T08:23:02.767Z,9.80
2018-09-30T08:25:31.597Z,9.80
2018-09-30T08:27:59.666Z,9.90
2018-09-30T08:30:27.760Z,10.00
2018-09-30T08:32:55.833Z,10.20
2018-09-30T08:35:24.760Z,10.20
2018-09-30T08:37:58.545Z,10.30
2018-09-30T08:40:31.992Z,10.50
2018-09-30T08:43:00.226Z,10.60
2018-09-30T08:45:28.462Z,10.80
2018-09-30T08:47:56.878Z,10.90
2018-09-30T08:50:24.988Z,11.00
2018-09-30T08:52:53.114Z,11.00
2018-09-30T08:55:21.207Z,11.10
2018-09-30T08:57:49.290Z,11.30
2018-09-30T09:00:17.418Z,11.40
2018-09-30T09:02:45.670Z,11.50
2018-09-30T09:05:13.762Z,11.50
2018-09-30T09:07:42.048Z,11.60
2018-09-30T09:10:10.540Z,11.80
2018-09-30T09:12:38.946Z,11.90
2018-09-30T09:15:07.370Z,12.10
2018-09-30T09:17:35.666Z,12.10
2018-09-30T09:20:04.418Z,12.10
2018-09-30T09:22:32.511Z,12.10
2018-09-30T09:25:00.634Z,12.20
2018-09-30T09:27:28.782Z,12.20
2018-09-30T09:29:56.886Z,12.30
2018-09-30T09:32:24.968Z,12.40
2018-09-30T09:34:53.069Z,12.40
2018-09-30T09:37:21.142Z,12.50
2018-09-30T09:39:49.222Z,12.80
2018-09-30T09:42:17.306Z,13.20
2018-09-30T09:44:45.426Z,13.50
2018-09-30T09:47:13.494Z,13.80
2018-09-30T09:49:41.819Z,14.00
2018-09-30T09:52:09.894Z,14.00
2018-09-30T09:54:37.978Z,13.90
2018-09-30T09:57:06.088Z,14.00
2018-09-30T09:59:34.187Z,14.00
2018-09-30T10:02:02.257Z,14.00
2018-09-30T10:04:30.348Z,14.00
2018-09-30T10:06:58.429Z,14.10
2018-09-30T10:09:26.522Z,14.20
2018-09-30T10:11:54.603Z,14.20
2018-09-30T10:14:22.686Z,14.40
2018-09-30T10:16:50.770Z,14.60
2018-09-30T10:19:19.003Z,14.70
2018-09-30T10:21:47.046Z,14.60
2018-09-30T10:24:15.371Z,14.70
2018-09-30T10:26:43.564Z,14.70
2018-09-30T10:29:12.487Z,14.90
2018-09-30T10:31:40.974Z,15.00
2018-09-30T10:34:09.145Z,15.30
2018-09-30T10:36:37.598Z,15.40
2018-09-30T10:39:08.342Z,15.60
2018-09-30T10:41:36.606Z,15.80
2018-09-30T10:44:04.683Z,16.10
2018-09-30T10:46:33.147Z,16.40
2018-09-30T10:49:01.490Z,16.60
2018-09-30T10:51:29.834Z,16.70
2018-09-30T10:53:58.740Z,16.70
2018-09-30T10:56:27.071Z,16.80
2018-09-30T10:58:55.379Z,17.00
2018-09-30T11:01:23.477Z,16.90
2018-09-30T11:03:51.550Z,17.00
2018-09-30T11:06:19.631Z,17.20
2018-09-30T11:08:47.715Z,17.40
2018-09-30T11:11:15.791Z,17.50
2018-09-30T11:13:43.889Z,17.60
2018-09-30T11:16:12.001Z,17.80
2018-09-30T11:18:40.050Z,18.00
2018-09-30T11:21:08.451Z,18.20
2018-09-30T11:23:36.917Z,18.40
2018-09-30T11:26:05.006Z,18.50
2018-09-30T11:28:33.077Z,18.60
2018-09-30T11:31:08.333Z,18.70
2018-09-30T11:33:37.729Z,18.80
2018-09-30T11:36:16.241Z,18.80
2018-09-30T11:38:44.397Z,18.90
2018-09-30T11:41:12.482Z,18.90
2018-09-30T11:43:40.574Z,19.00
2018-09-30T11:46:08.778Z,19.30
2018-09-30T11:48:36.866Z,19.50
2018-09-30T11:51:05.320Z,19.50
2018-09-30T11:53:33.401Z,19.70
2018-09-30T11:56:01.482Z,19.60
2018-09-30T11:58:29.574Z,19.60
2018-09-30T12:00:57.650Z,19.80
2018-09-30T12:03:25.746Z,20.00
2018-09-30T12:05:53.814Z,20.10
2018-09-30T12:08:21.898Z,20.20
2018-09-30T12:10:49.982Z,20.40
2018-09-30T12:13:18.057Z,20.50
2018-09-30T12:15:46.134Z,20.60
2018-09-30T12:18:14.236Z,20.70
2018-09-30T12:20:42.299Z,20.70
2018-09-30T12:23:11.241Z,20.80
2018-09-30T12:25:40.458Z,20.90
2018-09-30T12:28:09.257Z,21.00
2018-09-30T12:30:37.338Z,21.10
2018-09-30T12:33:05.423Z,21.30
2018-09-30T12:35:33.506Z,21.50
2018-09-30T12:38:01.595Z,21.70
2018-09-30T12:40:29.669Z,21.80
2018-09-30T12:42:57.750Z,22.00
2018-09-30T12:45:25.849Z,22.20
2018-09-30T12:47:53.968Z,22.30
2018-09-30T12:50:22.039Z,22.60
2018-09-30T12:52:50.594Z,22.90
2018-09-30T12:55:18.775Z,23.30
2018-09-30T12:57:46.842Z,24.00
2018-09-30T13:00:14.928Z,25.00
2018-09-30T13:02:43.004Z,26.50
2018-09-30T13:05:11.094Z,28.00
2018-09-30T13:07:39.185Z,29.00
2018-09-30T13:10:07.269Z,30.10
2018-09-30T13:12:35.352Z,31.10
2018-09-30T13:15:03.452Z,31.60
2018-09-30T13:17:31.576Z,31.90
2018-09-30T13:19:59.665Z,32.70
2018-09-30T13:22:27.802Z,33.40
2018-09-30T13:24:55.914Z,33.80
2018-09-30T13:27:23.995Z,33.80
2018-09-30T13:29:52.090Z,33.70
2018-09-30T13:32:20.163Z,33.90
2018-09-30T13:34:48.251Z,33.90
2018-09-30T13:37:16.537Z,34.30
2018-09-30T13:39:44.622Z,33.80
2018-09-30T13:42:12.696Z,33.50
2018-09-30T13:44:40.788Z,31.60
2018-09-30T13:47:08.859Z,31.00
2018-09-30T13:49:36.938Z,31.30
2018-09-30T13:52:05.023Z,30.60
2018-09-30T13:54:33.097Z,31.00
2018-09-30T13:57:01.187Z,30.00
2018-09-30T13:59:29.271Z,29.00
2018-09-30T14:01:57.344Z,28.50
2018-09-30T14:04:25.434Z,28.80
2018-09-30T14:06:53.520Z,28.20
2018-09-30T14:09:21.601Z,27.90
2018-09-30T14:11:49.717Z,27.30
2018-09-30T14:14:17.918Z,27.10
2018-09-30T14:16:45.998Z,26.80
2018-09-30T14:19:14.094Z,26.40
2018-09-30T14:21:42.181Z,26.20
2018-09-30T14:24:10.272Z,26.70
2018-09-30T14:26:38.367Z,26.90
2018-09-30T14:29:06.666Z,26.80
2018-09-30T14:31:34.758Z,26.90
2018-09-30T14:34:02.904Z,26.80
2018-09-30T14:36:30.937Z,26.30
2018-09-30T14:38:59.242Z,26.50
2018-09-30T14:41:27.351Z,26.50
2018-09-30T14:43:55.431Z,26.30
2018-09-30T14:46:23.521Z,26.00
2018-09-30T14:48:51.624Z,25.70
2018-09-30T14:51:19.723Z,25.50
2018-09-30T14:53:47.804Z,25.70
2018-09-30T14:56:15.908Z,25.80
2018-09-30T14:58:43.982Z,25.50
2018-09-30T15:01:12.078Z,25.40
2018-09-30T15:03:40.154Z,25.30
2018-09-30T15:06:08.755Z,25.20
2018-09-30T15:08:36.806Z,25.10
2018-09-30T15:11:04.905Z,25.30
2018-09-30T15:13:32.983Z,25.40
2018-09-30T15:16:01.074Z,25.20
2018-09-30T15:18:29.161Z,25.40
2018-09-30T15:20:57.246Z,25.50
2018-09-30T15:23:25.311Z,25.20
2018-09-30T15:25:53.395Z,24.90
2018-09-30T15:28:21.467Z,24.60
2018-09-30T15:30:49.554Z,24.40
2018-09-30T15:33:17.634Z,24.40
2018-09-30T15:35:45.710Z,24.50
2018-09-30T15:38:13.786Z,24.40
2018-09-30T15:40:41.862Z,24.10
2018-09-30T15:43:09.930Z,24.00
2018-09-30T15:45:38.006Z,23.90
2018-09-30T15:48:06.090Z,23.90
2018-09-30T15:50:34.163Z,23.80
2018-09-30T15:53:02.254Z,23.80
2018-09-30T15:55:30.343Z,23.90
2018-09-30T15:57:58.415Z,23.80
2018-09-30T16:00:26.512Z,23.70
2018-09-30T16:02:54.598Z,23.70
2018-09-30T16:05:22.670Z,23.50
2018-09-30T16:07:50.751Z,23.40
2018-09-30T16:10:18.832Z,23.30
2018-09-30T16:12:46.894Z,23.20
2018-09-30T16:15:14.970Z,23.00
2018-09-30T16:17:43.050Z,22.70
2018-09-30T16:20:11.146Z,22.70
2018-09-30T16:22:39.227Z,22.60
2018-09-30T16:25:07.342Z,22.40
2018-09-30T16:27:35.413Z,22.10
2018-09-30T16:30:03.494Z,21.90
2018-09-30T16:32:31.581Z,21.80
2018-09-30T16:34:59.674Z,21.60
2018-09-30T16:37:27.750Z,21.60
2018-09-30T16:39:55.824Z,21.50
2018-09-30T16:42:23.938Z,21.40
2018-09-30T16:44:52.094Z,21.20
2018-09-30T16:47:20.180Z,21.10
2018-09-30T16:49:48.538Z,21.00
2018-09-30T16:52:16.640Z,20.80
2018-09-30T16:54:44.705Z,20.60
2018-09-30T16:57:12.802Z,20.60
2018-09-30T16:59:40.870Z,20.50
2018-09-30T17:02:09.421Z,20.30
2018-09-30T17:04:37.481Z,20.20
2018-09-30T17:07:05.586Z,20.20
2018-09-30T17:09:33.662Z,20.00
2018-09-30T17:12:01.744Z,19.90
2018-09-30T17:14:29.810Z,19.90
2018-09-30T17:16:57.898Z,19.80
2018-09-30T17:19:25.982Z,19.70
2018-09-30T17:21:54.280Z,19.60
2018-09-30T17:24:22.362Z,19.50
2018-09-30T17:26:50.453Z,19.40
2018-09-30T17:29:18.537Z,19.30
2018-09-30T17:31:46.641Z,19.20
2018-09-30T17:34:14.698Z,19.10
2018-09-30T17:36:42.792Z,19.00
2018-09-30T17:39:11.071Z,18.90
2018-09-30T17:41:39.206Z,18.80
2018-09-30T17:44:07.299Z,18.70
2018-09-30T17:46:35.390Z,18.50
2018-09-30T17:49:03.662Z,18.50
2018-09-30T17:51:31.754Z,18.40
2018-09-30T17:53:59.914Z,18.40
2018-09-30T17:56:28.003Z,18.40
2018-09-30T17:58:56.070Z,18.40
2018-09-30T18:01:24.204Z,18.20
2018-09-30T18:03:52.276Z,18.10
2018-09-30T18:06:20.539Z,18.00
2018-09-30T18:08:48.638Z,17.90
2018-09-30T18:11:16.690Z,17.90
2018-09-30T18:13:44.783Z,17.90
2018-09-30T18:16:12.865Z,17.90
2018-09-30T18:18:40.971Z,17.80
2018-09-30T18:21:09.062Z,17.80
2018-09-30T18:23:37.173Z,17.80
2018-09-30T18:26:05.238Z,17.70
2018-09-30T18:28:33.330Z,17.60
2018-09-30T18:31:01.410Z,17.40
2018-09-30T18:33:31.489Z,17.20
2018-09-30T18:35:59.653Z,17.00
2018-09-30T18:38:27.989Z,16.70
2018-09-30T18:40:56.114Z,16.50
2018-09-30T18:43:24.382Z,16.50
2018-09-30T18:45:52.761Z,16.40
2018-09-30T18:48:20.850Z,16.50
2018-09-30T18:50:48.939Z,16.50
2018-09-30T18:53:17.040Z,16.50
2018-09-30T18:55:45.136Z,16.50
2018-09-30T18:58:13.203Z,16.50
2018-09-30T19:00:41.494Z,16.50
2018-09-30T19:03:09.624Z,16.50
2018-09-30T19:05:37.675Z,16.60
2018-09-30T19:08:05.931Z,16.60
2018-09-30T19:10:34.018Z,16.60
2018-09-30T19:13:02.128Z,16.60
2018-09-30T19:15:30.222Z,16.60
2018-09-30T19:17:58.310Z,16.60
2018-09-30T19:20:26.702Z,16.50
2018-09-30T19:22:54.876Z,16.60
2018-09-30T19:25:22.878Z,16.60
2018-09-30T19:27:51.207Z,16.60
2018-09-30T19:30:19.310Z,16.60
2018-09-30T19:32:52.622Z,16.60
2018-09-30T19:35:26.448Z,16.60
2018-09-30T19:37:58.282Z,16.60
2018-09-30T19:40:26.405Z,16.60
2018-09-30T19:42:54.515Z,16.70
2018-09-30T19:45:22.618Z,16.60
2018-09-30T19:47:50.804Z,16.60
2018-09-30T19:50:18.898Z,16.70
2018-09-30T19:52:47.010Z,16.60
2018-09-30T19:55:15.120Z,16.50
2018-09-30T19:57:43.210Z,16.40
2018-09-30T20:00:11.296Z,16.40
2018-09-30T20:02:39.378Z,16.40
2018-09-30T20:05:07.474Z,16.40
2018-09-30T20:07:35.548Z,16.40
2018-09-30T20:10:03.637Z,16.40
2018-09-30T20:12:31.742Z,16.40
2018-09-30T20:14:59.874Z,16.40
2018-09-30T20:17:27.998Z,16.40
2018-09-30T20:19:56.085Z,16.40
2018-09-30T20:22:24.154Z,16.40
2018-09-30T20:24:52.478Z,16.40
2018-09-30T20:27:20.559Z,16.40
2018-09-30T20:29:48.646Z,16.40
2018-09-30T20:32:16.718Z,16.30
2018-09-30T20:34:44.786Z,16.30
2018-09-30T20:37:13.040Z,16.30
2018-09-30T20:39:40.997Z,16.30
2018-09-30T20:42:09.082Z,16.30
2018-09-30T20:44:37.159Z,16.20
2018-09-30T20:47:05.234Z,16.10
2018-09-30T20:49:33.322Z,16.00
2018-09-30T20:52:01.402Z,16.00
2018-09-30T20:54:29.486Z,15.90
2018-09-30T20:56:57.595Z,15.90
2018-09-30T20:59:25.686Z,15.80
2018-09-30T21:01:53.773Z,15.70
2018-09-30T21:04:21.862Z,15.70
2018-09-30T21:06:49.946Z,15.70
2018-09-30T21:09:19.521Z,15.70
2018-09-30T21:11:47.592Z,15.70
2018-09-30T21:14:15.662Z,15.70
2018-09-30T21:16:43.738Z,15.80
2018-09-30T21:19:11.813Z,15.90
2018-09-30T21:21:39.898Z,15.90
2018-09-30T21:24:07.978Z,15.90
2018-09-30T21:26:36.050Z,15.90
2018-09-30T21:29:04.126Z,15.90
2018-09-30T21:31:32.227Z,15.90
2018-09-30T21:34:00.308Z,15.80
2018-09-30T21:36:28.399Z,15.80
2018-09-30T21:38:56.493Z,15.80
2018-09-30T21:41:25.367Z,15.80
2018-09-30T21:43:53.438Z,15.70
2018-09-30T21:46:21.518Z,15.60
2018-09-30T21:48:49.672Z,15.60
2018-09-30T21:51:17.689Z,15.50
2018-09-30T21:53:45.779Z,15.40
2018-09-30T21:56:13.918Z,15.40
2018-09-30T21:58:41.982Z,15.30
2018-09-30T22:01:10.065Z,15.30
2018-09-30T22:03:38.138Z,15.30
2018-09-30T22:06:06.421Z,15.30
2018-09-30T22:08:35.029Z,15.30
2018-09-30T22:11:03.111Z,15.30
2018-09-30T22:13:31.218Z,15.30
2018-09-30T22:15:59.309Z,15.20
2018-09-30T22:18:27.408Z,15.20
2018-09-30T22:20:55.506Z,15.10
2018-09-30T22:23:23.582Z,15.10
2018-09-30T22:25:51.670Z,15.10
2018-09-30T22:28:19.750Z,15.10
2018-09-30T22:30:47.837Z,15.10
2018-09-30T22:33:16.142Z,15.10
2018-09-30T22:35:44.225Z,15.00
2018-09-30T22:38:12.310Z,15.00
2018-09-30T22:40:40.394Z,15.00
2018-09-30T22:43:08.495Z,15.00
2018-09-30T22:45:36.574Z,15.00
2018-09-30T22:48:04.645Z,15.00
2018-09-30T22:50:32.808Z,15.00
2018-09-30T22:53:00.868Z,15.00
2018-09-30T22:55:28.958Z,14.90
2018-09-30T22:57:57.034Z,14.90
2018-09-30T23:00:26.210Z,14.90
2018-09-30T23:02:54.280Z,14.90
2018-09-30T23:05:22.366Z,14.80
2018-09-30T23:07:50.654Z,14.80
2018-09-30T23:10:18.782Z,14.80
2018-09-30T23:12:46.862Z,14.80
2018-09-30T23:15:15.202Z,14.80
2018-09-30T23:17:43.310Z,14.70
2018-09-30T23:20:15.866Z,14.70
2018-09-30T23:22:44.238Z,14.70
2018-09-30T23:25:12.330Z,14.60
2018-09-30T23:27:40.425Z,14.60
2018-09-30T23:30:08.666Z,14.60
2018-09-30T23:32:37.591Z,14.60
2018-09-30T23:35:05.650Z,14.50
2018-09-30T23:37:33.732Z,14.40
2018-09-30T23:40:01.819Z,14.40
2018-09-30T23:42:30.114Z,14.40
2018-09-30T23:44:58.211Z,14.30
2018-09-30T23:47:26.479Z,14.30
2018-09-30T23:49:54.594Z,14.10
2018-09-30T23:52:22.678Z,14.10
2018-09-30T23:54:50.939Z,14.10
2018-09-30T23:57:19.030Z,14.00
2018-09-30T23:59:47.134Z,13.90
